Time;durP1;ratioP1;P1;durP2;ratioP2;P2;SDS_P1;SDS_P2;PMS_P1;PMS_P2;Temp;Humidity;BMP_temperature;BMP_pressure;BME280_temperature;BME280_humidity;BME280_pressure;Samples;Min_cycle;Max_cycle;Signal;HPM_P1;HPM_P2
2022/03/21 00:00:57;;;;;;;451.20;95.43;;;2.10;99.90;;;;;;5032672;28;20056;-68
2022/03/21 00:03:25;;;;;;;979.50;126.03;;;2.10;99.90;;;;;;5031517;28;20501;-68
2022/03/21 00:05:52;;;;;;;287.45;67.68;;;2.10;99.90;;;;;;5032372;28;20041;-68
2022/03/21 00:08:22;;;;;;;989.17;126.03;;;2.00;99.90;;;;;;5051339;28;20079;-68
2022/03/21 00:10:49;;;;;;;909.97;111.05;;;1.90;99.90;;;;;;5052078;28;20041;-68
2022/03/21 00:13:16;;;;;;;869.88;109.97;;;1.70;99.90;;;;;;5052068;28;20112;-68
2022/03/21 00:15:43;;;;;;;883.28;109.85;;;1.60;99.90;;;;;;5085584;28;20170;-68
2022/03/21 00:18:13;;;;;;;579.15;97.50;;;1.50;99.90;;;;;;5053279;28;20115;-68
2022/03/21 00:20:44;;;;;;;209.82;64.93;;;1.40;99.90;;;;;;5053063;28;20047;-68
2022/03/21 00:23:11;;;;;;;119.70;55.55;;;1.40;99.90;;;;;;5085299;28;20132;-68
2022/03/21 00:25:37;;;;;;;139.35;61.00;;;1.30;99.90;;;;;;5053037;28;20045;-68
2022/03/21 00:28:05;;;;;;;141.52;61.17;;;1.40;99.90;;;;;;5053196;28;20040;-68
2022/03/21 00:30:31;;;;;;;132.25;61.22;;;1.50;99.90;;;;;;5053077;28;20421;-68
2022/03/21 00:32:57;;;;;;;124.22;58.45;;;1.60;99.90;;;;;;5052993;28;20051;-68
2022/03/21 00:35:24;;;;;;;124.05;55.70;;;1.60;99.90;;;;;;5050815;28;20041;-69
2022/03/21 00:37:50;;;;;;;132.25;59.20;;;1.50;99.90;;;;;;5051900;28;20090;-69
2022/03/21 00:40:17;;;;;;;147.35;64.90;;;1.60;99.90;;;;;;5052944;28;20048;-68
2022/03/21 00:42:45;;;;;;;168.27;59.92;;;1.70;99.90;;;;;;5051812;28;20043;-68
2022/03/21 00:45:14;;;;;;;161.50;64.30;;;1.70;99.90;;;;;;5053993;28;20063;-68
2022/03/21 00:47:41;;;;;;;153.07;58.70;;;1.70;99.90;;;;;;5085393;28;20551;-68
2022/03/21 00:50:11;;;;;;;133.95;60.50;;;1.60;99.90;;;;;;5052497;28;20043;-68
2022/03/21 00:52:55;;;;;;;131.50;61.03;;;1.60;99.90;;;;;;5051480;28;20576;-68
2022/03/21 00:55:24;;;;;;;131.70;58.63;;;1.60;99.90;;;;;;5052893;28;20067;-69
2022/03/21 00:57:50;;;;;;;137.45;60.15;;;1.60;99.90;;;;;;5051515;28;20037;-69
2022/03/21 01:00:20;;;;;;;126.15;55.95;;;1.60;99.90;;;;;;5052694;28;20044;-69
2022/03/21 01:02:47;;;;;;;131.70;59.88;;;1.50;99.90;;;;;;5051511;28;20051;-68
2022/03/21 01:05:13;;;;;;;154.13;65.70;;;1.50;99.90;;;;;;5049410;28;20051;-68
2022/03/21 01:07:40;;;;;;;156.82;63.45;;;1.50;99.90;;;;;;5075423;28;20076;-69
2022/03/21 01:10:08;;;;;;;159.90;64.18;;;1.50;99.90;;;;;;5051073;28;20049;-68
2022/03/21 01:12:35;;;;;;;158.15;65.85;;;1.60;99.90;;;;;;5051153;28;20051;-68
2022/03/21 01:15:01;;;;;;;154.68;64.75;;;1.60;99.90;;;;;;5034229;28;20076;-69
2022/03/21 01:17:27;;;;;;;143.45;66.38;;;1.60;99.90;;;;;;5052388;28;20071;-68
2022/03/21 01:19:53;;;;;;;146.23;66.15;;;1.60;99.90;;;;;;5050934;28;20116;-68
2022/03/21 01:22:19;;;;;;;159.73;66.15;;;1.70;99.90;;;;;;5052165;28;20187;-68
2022/03/21 01:24:45;;;;;;;135.48;63.47;;;1.70;99.90;;;;;;5050920;28;20132;-68
2022/03/21 01:27:11;;;;;;;136.90;61.53;;;1.70;99.90;;;;;;5051315;28;20043;-68
2022/03/21 01:29:36;;;;;;;146.35;63.50;;;1.70;99.90;;;;;;5047899;28;20044;-68
2022/03/21 01:32:03;;;;;;;139.70;64.03;;;1.60;99.90;;;;;;5051999;28;20040;-68
2022/03/21 01:34:29;;;;;;;120.85;57.10;;;1.60;99.90;;;;;;5032858;28;20037;-68
2022/03/21 01:36:55;;;;;;;146.50;63.40;;;1.60;99.90;;;;;;5051849;28;20048;-68
2022/03/21 01:39:22;;;;;;;139.77;60.72;;;1.60;99.90;;;;;;5034168;28;20116;-68
2022/03/21 01:41:48;;;;;;;122.43;62.03;;;1.60;99.90;;;;;;5051924;28;20041;-68
2022/03/21 01:44:14;;;;;;;125.18;59.55;;;1.50;99.90;;;;;;5050964;28;20033;-68
2022/03/21 01:46:41;;;;;;;126.38;63.28;;;1.50;99.90;;;;;;5050312;28;20425;-68
2022/03/21 01:49:09;;;;;;;123.00;60.63;;;1.50;99.90;;;;;;5050938;28;20045;-68
2022/03/21 01:51:39;;;;;;;123.95;62.33;;;1.50;99.90;;;;;;5050399;28;20124;-68
2022/03/21 01:56:51;;;;;;;133.13;60.30;;;1.50;99.90;;;;;;5050818;28;20405;-68
2022/03/21 01:59:19;;;;;;;121.45;60.95;;;1.50;99.90;;;;;;5051960;28;20397;-68
2022/03/21 02:01:45;;;;;;;119.85;60.35;;;1.50;99.90;;;;;;5050504;28;20032;-68
2022/03/21 02:04:11;;;;;;;113.57;57.88;;;1.50;99.90;;;;;;5050270;28;20033;-68
2022/03/21 02:06:37;;;;;;;112.72;59.92;;;1.50;99.90;;;;;;5051559;28;20456;-68
2022/03/21 02:09:07;;;;;;;125.47;60.45;;;1.50;99.90;;;;;;5051599;28;20473;-68
2022/03/21 02:11:33;;;;;;;114.70;58.58;;;1.50;99.90;;;;;;5051538;28;20512;-68
2022/03/21 02:14:01;;;;;;;115.20;61.10;;;1.50;99.90;;;;;;5067126;28;20037;-68
2022/03/21 02:16:29;;;;;;;102.63;56.15;;;1.40;99.90;;;;;;5083856;28;20049;-68
2022/03/21 02:18:58;;;;;;;101.70;55.63;;;1.40;99.90;;;;;;5033896;28;20563;-68
2022/03/21 02:21:54;;;;;;;104.50;57.30;;;1.40;99.90;;;;;;5051380;28;20175;-68
2022/03/21 02:24:49;;;;;;;105.35;55.22;;;1.40;99.90;;;;;;5067348;28;20040;-68
2022/03/21 02:27:17;;;;;;;103.35;53.90;;;1.40;99.90;;;;;;5051594;28;20508;-68
2022/03/21 02:29:47;;;;;;;95.25;52.33;;;1.30;99.90;;;;;;5067272;28;20452;-68
2022/03/21 02:32:13;;;;;;;104.73;56.10;;;1.20;99.90;;;;;;5050417;28;20033;-68
2022/03/21 02:34:40;;;;;;;108.90;58.17;;;1.20;99.90;;;;;;5065782;28;20276;-68
2022/03/21 02:37:12;;;;;;;111.65;58.10;;;1.20;99.90;;;;;;5083725;28;20062;-68
2022/03/21 02:39:39;;;;;;;123.25;59.38;;;1.30;99.90;;;;;;5051343;28;20508;-69
2022/03/21 02:42:05;;;;;;;113.00;58.53;;;1.30;99.90;;;;;;5033579;28;20123;-69
2022/03/21 02:44:35;;;;;;;118.47;57.90;;;1.30;99.90;;;;;;5051313;28;20509;-69
2022/03/21 02:47:02;;;;;;;125.80;62.58;;;1.20;99.90;;;;;;5050429;28;20094;-69
2022/03/21 02:49:28;;;;;;;124.13;60.13;;;1.30;99.90;;;;;;5083691;28;20044;-69
2022/03/21 02:51:55;;;;;;;127.82;63.08;;;1.30;99.90;;;;;;5083642;28;20033;-68
2022/03/21 02:54:22;;;;;;;125.43;61.83;;;1.40;99.90;;;;;;5050274;28;20041;-68
2022/03/21 02:56:50;;;;;;;141.90;66.55;;;1.40;99.90;;;;;;5050300;28;20048;-68
2022/03/21 02:59:17;;;;;;;142.52;68.90;;;1.50;99.90;;;;;;5054254;28;20037;-68
2022/03/21 03:01:43;;;;;;;128.93;64.85;;;1.50;99.90;;;;;;5037060;28;20049;-69
2022/03/21 03:04:09;;;;;;;117.80;61.05;;;1.50;99.90;;;;;;5085706;28;20127;-69
2022/03/21 03:06:39;;;;;;;122.03;59.63;;;1.50;99.90;;;;;;5054831;28;20147;-68
2022/03/21 03:09:07;;;;;;;118.47;58.17;;;1.50;99.90;;;;;;5037055;28;20043;-69
2022/03/21 03:11:36;;;;;;;118.35;61.38;;;1.50;99.90;;;;;;5036665;28;20033;-68
2022/03/21 03:14:03;;;;;;;114.93;57.67;;;1.50;99.90;;;;;;5036625;28;20056;-68
2022/03/21 03:16:29;;;;;;;120.47;60.17;;;1.50;99.90;;;;;;5053227;28;20041;-69
2022/03/21 03:18:55;;;;;;;112.40;57.20;;;1.50;99.90;;;;;;5054610;28;20087;-69
2022/03/21 03:21:24;;;;;;;117.20;57.97;;;1.40;99.90;;;;;;5053431;28;20048;-69
2022/03/21 03:23:51;;;;;;;128.77;60.47;;;1.40;99.90;;;;;;5053540;28;20103;-69
2022/03/21 03:26:17;;;;;;;129.75;60.33;;;1.40;99.90;;;;;;5053067;28;20039;-69
2022/03/21 03:28:44;;;;;;;128.63;58.83;;;1.40;99.90;;;;;;5053013;28;20468;-69
2022/03/21 03:31:10;;;;;;;120.30;58.83;;;1.40;99.90;;;;;;5054428;28;20178;-69
2022/03/21 03:33:36;;;;;;;119.35;59.55;;;1.50;99.90;;;;;;5051514;28;20041;-69
2022/03/21 03:36:02;;;;;;;124.38;60.05;;;1.60;99.90;;;;;;5053106;28;20461;-69
2022/03/21 03:38:28;;;;;;;130.57;62.53;;;1.60;99.90;;;;;;5054123;28;20405;-69
2022/03/21 03:40:54;;;;;;;135.00;62.90;;;1.60;99.90;;;;;;5052890;28;20060;-69
2022/03/21 03:43:20;;;;;;;129.82;61.60;;;1.60;99.90;;;;;;5054158;28;20067;-69
2022/03/21 03:45:49;;;;;;;140.77;63.50;;;1.60;99.90;;;;;;5052666;28;20045;-68
2022/03/21 03:48:15;;;;;;;131.70;63.70;;;1.60;99.90;;;;;;5054238;28;20051;-68
2022/03/21 03:50:41;;;;;;;140.10;64.57;;;1.60;99.90;;;;;;5052652;28;20048;-69
2022/03/21 03:53:07;;;;;;;131.10;61.30;;;1.60;99.90;;;;;;5052832;28;20137;-69
2022/03/21 03:55:33;;;;;;;135.60;64.13;;;1.70;99.90;;;;;;5052774;28;20508;-69
2022/03/21 03:57:59;;;;;;;131.90;61.63;;;1.70;99.90;;;;;;5053970;28;20044;-69
2022/03/21 04:00:25;;;;;;;127.38;61.58;;;1.60;99.90;;;;;;5052658;28;20076;-69
2022/03/21 04:03:51;;;;;;;123.95;62.47;;;1.50;99.90;;;;;;5052295;28;20124;-69
2022/03/21 04:05:45;;;;;;;117.05;60.35;;;1.50;99.90;;;;;;5047901;28;20098;-69
2022/03/21 04:08:11;;;;;;;121.88;59.33;;;1.40;99.90;;;;;;5052885;28;20456;-69
2022/03/21 04:10:38;;;;;;;129.00;60.85;;;1.50;99.90;;;;;;5085705;28;20049;-69
2022/03/21 04:13:04;;;;;;;132.10;62.00;;;1.40;99.90;;;;;;5035801;28;20063;-69
2022/03/21 04:15:30;;;;;;;128.95;60.50;;;1.50;99.90;;;;;;5053422;28;20497;-69
2022/03/21 04:18:00;;;;;;;135.00;64.78;;;1.50;99.90;;;;;;5085932;28;20128;-69
2022/03/21 04:20:27;;;;;;;;;;;1.50;99.90;;;;;;5069052;28;20041;-69
2022/03/21 04:22:53;;;;;;;112.47;56.92;;;1.50;99.90;;;;;;5051821;28;19974;-69
2022/03/21 04:25:18;;;;;;;111.75;55.03;;;1.50;99.90;;;;;;5053461;28;20044;-69
2022/03/21 04:27:44;;;;;;;116.43;58.50;;;1.60;99.90;;;;;;5085545;28;20041;-69
2022/03/21 04:30:10;;;;;;;135.07;61.65;;;1.60;99.90;;;;;;5085323;28;20100;-69
2022/03/21 04:32:36;;;;;;;117.28;57.05;;;1.60;99.90;;;;;;5053036;28;20029;-69
2022/03/21 04:35:03;;;;;;;113.80;57.47;;;1.70;99.90;;;;;;5083791;28;20055;-69
2022/03/21 04:37:29;;;;;;;94.15;51.55;;;1.70;99.90;;;;;;5051893;28;20111;-69
2022/03/21 04:39:55;;;;;;;100.70;50.00;;;1.70;99.90;;;;;;5051694;28;20106;-69
2022/03/21 04:42:22;;;;;;;107.63;53.38;;;1.60;99.90;;;;;;5085271;28;20048;-68
2022/03/21 04:44:50;;;;;;;103.43;49.70;;;1.50;99.90;;;;;;5068252;28;20045;-69
2022/03/21 04:47:17;;;;;;;116.32;54.65;;;1.60;99.90;;;;;;5052830;28;20049;-69
2022/03/21 04:49:44;;;;;;;106.78;52.70;;;1.50;99.90;;;;;;5052682;28;20037;-69
2022/03/21 04:52:10;;;;;;;104.72;52.30;;;1.50;99.90;;;;;;5052796;28;20073;-69
2022/03/21 04:54:35;;;;;;;102.55;50.83;;;1.50;99.90;;;;;;5052869;28;20037;-68
2022/03/21 04:57:01;;;;;;;105.68;50.90;;;1.50;99.90;;;;;;5052658;28;20037;-68
2022/03/21 04:59:27;;;;;;;96.75;50.53;;;1.50;99.90;;;;;;5052636;28;20028;-68
2022/03/21 05:01:53;;;;;;;100.93;48.60;;;1.60;99.90;;;;;;5067935;28;20508;-69
2022/03/21 05:04:19;;;;;;;102.43;49.42;;;1.60;99.90;;;;;;5066135;28;20041;-69
2022/03/21 05:06:46;;;;;;;100.78;50.45;;;1.60;99.90;;;;;;5083446;28;20075;-69
2022/03/21 05:09:12;;;;;;;98.18;49.10;;;1.50;99.90;;;;;;5051379;28;20072;-69
2022/03/21 05:11:37;;;;;;;90.82;45.58;;;1.40;99.90;;;;;;5051117;28;20041;-69
2022/03/21 05:14:03;;;;;;;86.20;45.55;;;1.40;99.90;;;;;;5051289;28;20095;-68
2022/03/21 05:16:29;;;;;;;101.72;49.05;;;1.30;99.90;;;;;;5035096;28;20040;-69
2022/03/21 05:18:55;;;;;;;106.68;50.17;;;1.20;99.90;;;;;;5052175;28;20493;-69
2022/03/21 05:21:21;;;;;;;111.63;53.78;;;1.20;99.90;;;;;;5030840;28;20037;-68
2022/03/21 05:31:59;;;;;;;131.43;55.42;;;1.30;99.90;;;;;;5050969;28;20555;-69
2022/03/21 05:37:09;;;;;;;137.57;55.92;;;1.50;99.90;;;;;;5050857;28;20059;-68
2022/03/21 05:40:31;;;;;;;144.55;57.08;;;1.50;99.90;;;;;;5052286;28;20041;-68
2022/03/21 05:42:21;;;;;;;138.45;55.45;;;1.60;99.90;;;;;;5050784;28;20052;-68
2022/03/21 05:44:46;;;;;;;143.38;61.45;;;1.60;99.90;;;;;;5051062;28;20044;-68
2022/03/21 05:47:12;;;;;;;135.90;56.95;;;1.60;99.90;;;;;;5050664;28;20436;-68
2022/03/21 05:49:38;;;;;;;140.45;56.83;;;1.60;99.90;;;;;;5050425;28;20049;-68
2022/03/21 05:52:04;;;;;;;127.15;54.65;;;1.40;99.90;;;;;;5051964;28;20033;-68
2022/03/21 05:54:30;;;;;;;101.55;48.90;;;1.30;99.90;;;;;;5050559;28;20044;-68
2022/03/21 05:56:56;;;;;;;97.65;47.75;;;1.30;99.90;;;;;;5034340;28;20037;-68
2022/03/21 06:02:06;;;;;;;94.00;47.47;;;1.10;99.90;;;;;;5051951;28;20095;-69
2022/03/21 06:04:33;;;;;;;92.03;46.15;;;1.00;99.90;;;;;;5049110;28;20489;-68
2022/03/21 06:06:59;;;;;;;89.55;45.78;;;1.00;99.90;;;;;;5050785;28;20045;-68
2022/03/21 06:09:24;;;;;;;90.50;43.15;;;0.90;99.90;;;;;;5050787;28;20394;-68
2022/03/21 06:11:50;;;;;;;91.32;43.50;;;0.90;99.90;;;;;;5050652;28;20037;-68
2022/03/21 06:14:18;;;;;;;90.45;44.75;;;0.80;99.90;;;;;;5051756;28;20099;-68
2022/03/21 06:16:44;;;;;;;96.55;47.10;;;0.80;99.90;;;;;;5051851;28;20037;-68
2022/03/21 06:19:10;;;;;;;100.32;47.65;;;0.90;99.90;;;;;;5033940;28;20366;-68
2022/03/21 06:21:36;;;;;;;111.75;51.30;;;1.10;99.90;;;;;;5050418;28;20110;-69
2022/03/21 06:24:02;;;;;;;110.97;50.85;;;1.20;99.90;;;;;;5050357;28;20436;-69
2022/03/21 06:26:28;;;;;;;115.18;50.10;;;1.30;99.90;;;;;;5050568;28;20044;-69
2022/03/21 06:28:54;;;;;;;121.57;53.50;;;1.60;99.90;;;;;;5051720;28;20382;-69
2022/03/21 06:31:19;;;;;;;120.28;52.50;;;1.90;99.90;;;;;;5051843;28;20441;-69
2022/03/21 06:33:45;;;;;;;98.85;50.05;;;2.20;99.90;;;;;;5052361;28;20197;-69
2022/03/21 06:36:11;;;;;;;88.63;46.30;;;2.40;99.90;;;;;;5054939;28;20116;-69
2022/03/21 06:38:38;;;;;;;70.38;41.40;;;2.60;99.90;;;;;;5054302;28;20370;-68
2022/03/21 06:41:04;;;;;;;68.63;40.55;;;2.80;99.90;;;;;;5054411;28;20041;-69
2022/03/21 06:43:30;;;;;;;57.45;35.05;;;3.00;99.90;;;;;;5055557;28;20049;-69
2022/03/21 06:45:56;;;;;;;56.42;34.92;;;3.10;99.90;;;;;;5053884;28;20128;-69
2022/03/21 06:48:23;;;;;;;51.67;32.90;;;3.20;99.90;;;;;;5037299;28;20041;-69
2022/03/21 06:50:51;;;;;;;56.97;35.85;;;3.30;99.90;;;;;;5054272;28;20054;-69
2022/03/21 06:53:18;;;;;;;47.28;31.75;;;3.50;99.90;;;;;;5053348;28;20071;-69
2022/03/21 06:55:44;;;;;;;46.60;31.15;;;3.70;99.90;;;;;;5055092;28;20090;-68
2022/03/21 06:58:14;;;;;;;47.25;28.95;;;3.80;99.90;;;;;;5084532;28;20075;-69
2022/03/21 07:00:44;;;;;;;45.42;28.73;;;3.80;99.90;;;;;;5055170;28;20067;-69
2022/03/21 07:03:11;;;;;;;46.78;30.30;;;3.80;99.90;;;;;;5084543;28;20132;-69
2022/03/21 07:05:38;;;;;;;48.33;31.42;;;3.80;99.90;;;;;;5036013;28;20485;-69
2022/03/21 07:08:04;;;;;;;49.80;30.95;;;3.90;99.90;;;;;;5054435;28;20040;-68
2022/03/21 07:10:34;;;;;;;45.85;30.02;;;3.90;99.90;;;;;;5054739;28;20458;-69
2022/03/21 07:13:01;;;;;;;43.10;29.90;;;4.00;99.90;;;;;;5056035;28;20549;-69
2022/03/21 07:15:27;;;;;;;45.00;28.40;;;4.00;99.90;;;;;;5055486;28;20547;-69
2022/03/21 07:17:55;;;;;;;47.85;29.23;;;4.10;99.90;;;;;;5053631;28;20041;-69
2022/03/21 07:20:21;;;;;;;43.33;27.80;;;4.20;99.90;;;;;;5052780;28;20075;-69
2022/03/21 07:22:46;;;;;;;41.17;25.48;;;4.30;99.90;;;;;;5052889;28;20088;-69
2022/03/21 07:25:13;;;;;;;40.58;26.52;;;4.40;99.90;;;;;;5054341;28;20056;-69
2022/03/21 07:27:45;;;;;;;44.22;28.40;;;4.40;99.90;;;;;;5053812;28;20052;-69
2022/03/21 07:30:12;;;;;;;41.10;26.33;;;4.50;99.90;;;;;;5052695;28;20136;-69
2022/03/21 07:32:39;;;;;;;41.55;27.52;;;4.60;99.90;;;;;;5036365;28;20083;-70
2022/03/21 07:35:05;;;;;;;36.05;24.33;;;4.70;99.90;;;;;;5051693;28;20037;-70
2022/03/21 07:37:46;;;;;;;40.92;25.15;;;4.90;99.90;;;;;;5053967;28;20037;-69
2022/03/21 07:40:12;;;;;;;;;;;5.10;99.90;;;;;;5054107;28;20053;-70
2022/03/21 07:42:42;;;;;;;35.22;22.42;;;5.20;99.90;;;;;;5085742;28;19917;-69
2022/03/21 07:47:54;;;;;;;34.40;22.02;;;5.50;99.90;;;;;;5052272;28;20101;-70
2022/03/21 07:50:23;;;;;;;35.65;21.60;;;5.60;99.90;;;;;;5053467;28;20499;-69
2022/03/21 07:52:50;;;;;;;37.45;22.98;;;5.70;99.90;;;;;;5052593;28;20080;-70
2022/03/21 07:55:16;;;;;;;34.00;23.73;;;5.90;99.90;;;;;;5054319;28;20033;-70
2022/03/21 07:57:42;;;;;;;28.23;18.33;;;6.00;99.90;;;;;;5053596;28;20070;-69
2022/03/21 08:00:09;;;;;;;38.53;24.10;;;6.20;99.90;;;;;;5053374;28;20423;-69
2022/03/21 08:02:36;;;;;;;33.38;21.95;;;6.40;99.90;;;;;;5054567;28;20078;-69
2022/03/21 08:05:04;;;;;;;32.58;22.20;;;6.60;99.90;;;;;;5050589;28;20530;-69
2022/03/21 08:07:33;;;;;;;30.38;19.27;;;6.80;99.90;;;;;;5054328;28;20072;-69
2022/03/21 08:09:58;;;;;;;30.83;19.50;;;7.10;99.90;;;;;;5054123;28;20107;-69
2022/03/21 08:12:24;;;;;;;36.50;22.98;;;7.60;99.90;;;;;;5053193;28;20049;-70
2022/03/21 08:14:51;;;;;;;33.40;21.40;;;7.90;99.90;;;;;;5054306;28;20040;-71
2022/03/21 08:17:18;;;;;;;31.75;22.58;;;8.20;99.90;;;;;;5037378;28;20033;-73
2022/03/21 08:19:44;;;;;;;32.90;21.77;;;8.50;99.90;;;;;;5053306;28;20456;-70
2022/03/21 08:22:11;;;;;;;33.13;21.70;;;9.00;99.90;;;;;;5053781;28;20048;-71
2022/03/21 08:24:37;;;;;;;28.00;19.38;;;9.50;99.90;;;;;;5052867;28;20393;-71
2022/03/21 08:27:07;;;;;;;29.17;18.30;;;10.00;99.90;;;;;;5053798;28;20036;-72
2022/03/21 08:29:33;;;;;;;30.30;18.88;;;10.50;99.90;;;;;;5052826;28;20120;-72
2022/03/21 08:32:02;;;;;;;29.77;18.67;;;10.90;99.90;;;;;;5053951;28;20119;-72
2022/03/21 08:34:27;;;;;;;31.30;19.00;;;11.20;99.90;;;;;;5050535;28;20595;-72
2022/03/21 08:36:53;;;;;;;32.05;20.83;;;11.50;99.90;;;;;;5052229;28;20037;-71
2022/03/21 08:39:19;;;;;;;31.48;19.90;;;11.70;99.90;;;;;;5053244;28;20103;-72
2022/03/21 08:41:45;;;;;;;29.00;19.90;;;11.90;99.90;;;;;;5053833;28;20033;-72
2022/03/21 08:44:11;;;;;;;29.85;19.75;;;12.10;99.90;;;;;;5052497;28;20044;-72
2022/03/21 08:46:37;;;;;;;33.38;20.52;;;12.40;99.90;;;;;;5052513;28;20520;-72
2022/03/21 08:51:47;;;;;;;30.38;20.00;;;13.00;99.90;;;;;;5053686;28;20045;-72
2022/03/21 08:54:13;;;;;;;32.63;19.77;;;13.20;99.90;;;;;;5053409;28;20037;-72
2022/03/21 08:56:40;;;;;;;30.20;20.42;;;13.50;99.90;;;;;;5052615;28;20115;-73
2022/03/21 08:59:07;;;;;;;24.02;17.98;;;13.70;99.90;;;;;;5053605;28;20037;-73
2022/03/21 09:01:33;;;;;;;25.20;18.88;;;13.80;99.90;;;;;;5052300;28;20076;-73
2022/03/21 09:04:03;;;;;;;26.95;19.55;;;14.00;99.90;;;;;;5050063;28;20036;-73
2022/03/21 09:06:29;;;;;;;30.60;20.77;;;14.20;99.90;;;;;;5051801;28;20083;-73
2022/03/21 09:08:56;;;;;;;28.58;18.17;;;14.40;99.90;;;;;;5085818;28;20348;-72
2022/03/21 09:11:22;;;;;;;24.02;17.50;;;14.50;99.90;;;;;;5052996;28;20713;-73
2022/03/21 09:13:48;;;;;;;25.45;18.65;;;14.70;99.90;;;;;;5053178;28;20037;-72
2022/03/21 09:16:15;;;;;;;25.23;18.95;;;14.80;99.90;;;;;;5068360;28;20503;-72
2022/03/21 09:18:42;;;;;;;23.08;17.35;;;14.90;99.90;;;;;;5053139;28;20045;-73
2022/03/21 09:21:09;;;;;;;25.17;19.75;;;15.20;99.90;;;;;;5051674;28;20103;-73
2022/03/21 09:23:35;;;;;;;25.45;18.98;;;15.40;99.90;;;;;;5085389;28;20102;-73
2022/03/21 09:26:04;;;;;;;25.30;18.27;;;15.60;99.90;;;;;;5053098;28;20033;-72
2022/03/21 09:28:31;;;;;;;27.38;19.38;;;15.70;97.40;;;;;;5053107;28;20043;-73
2022/03/21 09:30:58;;;;;;;25.70;17.42;;;15.80;98.00;;;;;;5052832;28;20107;-72
2022/03/21 09:33:27;;;;;;;25.83;19.75;;;16.00;96.20;;;;;;5052196;28;20108;-73
2022/03/21 09:35:53;;;;;;;27.92;19.80;;;16.10;97.00;;;;;;5084402;28;20037;-73
2022/03/21 09:38:19;;;;;;;28.67;20.83;;;16.30;98.50;;;;;;5052847;28;20404;-73
2022/03/21 09:40:46;;;;;;;22.35;17.42;;;16.60;96.30;;;;;;5052794;28;20047;-73
2022/03/21 09:43:13;;;;;;;25.17;18.40;;;16.80;95.40;;;;;;5052856;28;20041;-73
2022/03/21 09:45:39;;;;;;;24.65;19.10;;;16.90;93.30;;;;;;5051626;28;20055;-72
2022/03/21 09:48:09;;;;;;;25.42;19.27;;;17.00;92.00;;;;;;5051407;28;20049;-73
2022/03/21 09:50:36;;;;;;;;;;;17.20;92.60;;;;;;5069353;28;20125;-73
2022/03/21 09:53:03;;;;;;;22.05;17.45;;;17.40;91.30;;;;;;5052014;28;20292;-73
2022/03/21 09:55:29;;;;;;;23.13;17.77;;;17.50;91.30;;;;;;5085762;28;20080;-73
2022/03/21 09:57:55;;;;;;;23.95;16.80;;;17.60;85.10;;;;;;5068588;28;20413;-73
2022/03/21 10:00:21;;;;;;;21.38;16.65;;;17.50;83.00;;;;;;5051968;28;20040;-72
2022/03/21 10:02:47;;;;;;;23.52;17.27;;;17.40;80.80;;;;;;5054218;28;20053;-73
2022/03/21 10:05:35;;;;;;;23.85;17.33;;;17.30;78.90;;;;;;5050954;28;20044;-72
2022/03/21 10:08:17;;;;;;;23.88;17.73;;;17.20;80.90;;;;;;5055866;28;20102;-72
2022/03/21 10:11:01;;;;;;;24.23;17.20;;;17.40;81.90;;;;;;5073700;28;20049;-72
2022/03/21 10:13:32;;;;;;;25.90;17.40;;;17.60;79.30;;;;;;5055424;28;20044;-71
2022/03/21 10:16:11;;;;;;;24.45;17.90;;;17.60;77.70;;;;;;5056753;28;20458;-72
2022/03/21 10:18:38;;;;;;;27.20;19.25;;;17.60;77.70;;;;;;5056580;28;20040;-72
2022/03/21 10:21:12;;;;;;;21.75;16.65;;;17.80;79.30;;;;;;5055170;28;20477;-72
2022/03/21 10:23:38;;;;;;;23.98;17.98;;;18.00;75.60;;;;;;5088698;28;20048;-72
2022/03/21 10:26:28;;;;;;;22.08;17.27;;;18.10;76.50;;;;;;5055076;28;20041;-72
2022/03/21 10:28:59;;;;;;;20.17;16.40;;;18.40;77.40;;;;;;5056269;28;20072;-72
2022/03/21 10:31:43;;;;;;;25.52;17.65;;;18.60;77.30;;;;;;5054837;28;20045;-72
2022/03/21 10:34:16;;;;;;;23.15;17.70;;;18.70;73.90;;;;;;5052906;28;20051;-72
2022/03/21 10:37:08;;;;;;;24.33;18.00;;;18.80;71.10;;;;;;5088260;28;20049;-72
2022/03/21 10:39:36;;;;;;;23.30;19.20;;;19.00;69.40;;;;;;5054834;28;20535;-72
2022/03/21 10:42:05;;;;;;;26.23;19.00;;;19.10;69.10;;;;;;5040711;28;20060;-72
2022/03/21 10:44:33;;;;;;;24.10;19.15;;;19.30;67.80;;;;;;5054681;28;20037;-72
2022/03/21 10:47:03;;;;;;;30.50;22.30;;;19.40;67.10;;;;;;5056034;28;20037;-72
2022/03/21 10:49:31;;;;;;;28.23;21.40;;;19.40;65.40;;;;;;5059863;28;20045;-72
2022/03/21 10:51:58;;;;;;;26.25;20.58;;;19.30;66.20;;;;;;5054413;28;20048;-72
2022/03/21 10:54:41;;;;;;;28.42;21.67;;;19.20;61.20;;;;;;5054547;28;20508;-72
2022/03/21 10:57:26;;;;;;;35.60;24.40;;;19.10;60.70;;;;;;5055621;28;20045;-72
2022/03/21 11:00:11;;;;;;;29.10;20.58;;;19.40;62.70;;;;;;5054575;28;20059;-73
2022/03/21 11:02:47;;;;;;;29.33;20.70;;;19.70;60.50;;;;;;5087756;28;20501;-72
2022/03/21 11:05:14;;;;;;;27.98;21.25;;;19.70;54.90;;;;;;5068776;28;20112;-72
2022/03/21 11:07:40;;;;;;;30.60;22.33;;;19.80;56.10;;;;;;5043022;28;20049;-72
2022/03/21 11:10:06;;;;;;;24.38;18.40;;;20.00;56.70;;;;;;5034171;28;20114;-72
2022/03/21 11:12:33;;;;;;;27.73;20.20;;;20.50;56.10;;;;;;5067343;28;20647;-72
2022/03/21 11:15:01;;;;;;;22.00;16.65;;;20.60;48.80;;;;;;5035351;28;20534;-72
2022/03/21 11:17:27;;;;;;;25.77;19.33;;;20.40;48.70;;;;;;5034078;28;20084;-72
2022/03/21 11:19:53;;;;;;;22.15;16.55;;;20.10;50.30;;;;;;5033377;28;20073;-73
2022/03/21 11:22:20;;;;;;;25.40;17.75;;;19.90;50.80;;;;;;5033977;28;20119;-72
2022/03/21 11:24:45;;;;;;;23.08;18.10;;;19.90;48.20;;;;;;5034251;28;20052;-72
2022/03/21 11:27:48;;;;;;;31.23;22.33;;;20.00;49.40;;;;;;5033981;28;20624;-72
2022/03/21 11:30:21;;;;;;;26.42;19.65;;;20.00;51.10;;;;;;5034124;28;20038;-72
2022/03/21 11:33:00;;;;;;;25.45;19.63;;;19.90;49.40;;;;;;5035193;28;20037;-72
2022/03/21 11:35:32;;;;;;;28.65;20.42;;;20.00;50.60;;;;;;5032586;28;20045;-72
2022/03/21 11:38:21;;;;;;;24.92;19.80;;;20.20;49.90;;;;;;5034992;28;20371;-72
2022/03/21 11:40:46;;;;;;;25.15;17.23;;;20.30;49.70;;;;;;5034550;28;20057;-72
2022/03/21 11:43:16;;;;;;;24.73;17.27;;;20.40;51.70;;;;;;5034880;28;20041;-72
2022/03/21 11:45:43;;;;;;;20.85;17.42;;;20.30;49.70;;;;;;5035192;28;20060;-72
2022/03/21 11:48:18;;;;;;;21.13;18.30;;;20.30;50.00;;;;;;5050218;28;20104;-72
2022/03/21 11:50:51;;;;;;;19.45;16.88;;;20.60;51.10;;;;;;5033370;28;20528;-72
2022/03/21 11:53:27;;;;;;;21.60;17.73;;;21.00;52.40;;;;;;5034700;28;20052;-72
2022/03/21 11:55:53;;;;;;;20.00;16.20;;;21.30;49.90;;;;;;5033377;28;20041;-72
2022/03/21 11:58:22;;;;;;;22.17;17.73;;;21.00;50.00;;;;;;5033298;28;20042;-72
2022/03/21 12:01:17;;;;;;;18.15;15.80;;;20.70;48.70;;;;;;5033593;28;20041;-72
2022/03/21 12:03:43;;;;;;;22.85;16.73;;;20.30;48.40;;;;;;5032927;28;20088;-71
2022/03/21 12:06:31;;;;;;;22.38;17.67;;;20.00;47.90;;;;;;5033640;28;20084;-72
2022/03/21 12:09:11;;;;;;;19.00;15.45;;;19.80;48.10;;;;;;5034645;28;20046;-72
2022/03/21 12:11:37;;;;;;;19.92;15.63;;;19.60;47.30;;;;;;5032410;28;20418;-72
2022/03/21 12:14:25;;;;;;;23.75;16.17;;;19.40;47.60;;;;;;5048954;28;20041;-71
2022/03/21 12:17:12;;;;;;;19.90;16.20;;;19.50;48.70;;;;;;5033464;28;20037;-71
2022/03/21 12:20:01;;;;;;;19.27;16.08;;;19.90;48.90;;;;;;5033899;28;20068;-71
2022/03/21 12:22:27;;;;;;;22.45;17.88;;;20.40;48.40;;;;;;5016568;28;20050;-71
2022/03/21 12:25:14;;;;;;;23.73;17.35;;;20.20;46.10;;;;;;5049644;28;20478;-71
2022/03/21 12:27:57;;;;;;;22.13;15.63;;;20.10;46.30;;;;;;5065121;28;20053;-71
2022/03/21 12:30:31;;;;;;;23.23;16.88;;;20.20;47.80;;;;;;5033375;28;20386;-71
2022/03/21 12:32:58;;;;;;;23.85;17.02;;;20.10;47.80;;;;;;5034290;28;20099;-70
2022/03/21 12:35:45;;;;;;;21.27;16.55;;;19.80;47.40;;;;;;5032850;28;20036;-71
2022/03/21 12:38:21;;;;;;;21.95;17.25;;;19.80;47.90;;;;;;5057134;28;20145;-71
2022/03/21 12:40:47;;;;;;;21.73;17.20;;;19.90;46.40;;;;;;5032290;28;20042;-71
2022/03/21 12:43:22;;;;;;;19.02;17.00;;;20.20;47.70;;;;;;5049073;28;20045;-72
2022/03/21 12:46:12;;;;;;;20.02;16.85;;;20.60;47.90;;;;;;5032421;28;20100;-73
2022/03/21 12:48:40;;;;;;;;;;;21.10;47.20;;;;;;5032883;28;20080;-71
2022/03/21 12:51:07;;;;;;;20.65;16.65;;;21.00;45.70;;;;;;5032553;28;19921;-73
2022/03/21 12:53:39;;;;;;;22.45;17.52;;;20.40;44.90;;;;;;5033540;28;20486;-75
2022/03/21 12:56:10;;;;;;;19.67;16.65;;;20.30;45.30;;;;;;5049094;28;20048;-71
2022/03/21 12:58:38;;;;;;;22.92;17.40;;;20.20;46.90;;;;;;5032468;28;20072;-71
2022/03/21 13:01:04;;;;;;;19.40;16.50;;;20.10;46.30;;;;;;5033610;28;20037;-72